Latest Weather Observations for Bankstown

IDN60801

Issued at 10:32 pm EDT Tuesday 9 February 2016 (issued every 30 minutes, with the page automatically refreshed every 10 minutes)

About weather observations | Map of weather stations | Latest weather observations for NSW | Other Formats
Station Details ID: 066137 Name: BANKSTOWN AIRPORT AWS Lat: -33.92 Lon: 150.99 Height: 6.5 m
Data from the previous 72 hours. | See also: Recent months at Bankstown
Date/Time
EDT
Temp
°C
App
Temp
°C
Dew
Point
Rel
Hum
%
Delta-T
°C
Wind Press
QNH
hPa
Press
MSL
hPa
Rain
since 9 am
mm
Dir
 
Spd
km/h
Gust
km/h
Spd
kts
Gust
kts
09/10:30pm 20.1 21.3 15.9 77 2.5 ESE 4 6 2 3 1019.3 1019.3 0.0
09/10:00pm 22.0 22.4 15.4 66 3.9 ESE 7 9 4 5 1019.4 1019.3 0.0
09/09:30pm 22.5 22.6 15.6 65 4.1 SE 9 11 5 6 1019.3 - 0.0
09/09:00pm 22.8 22.5 15.4 63 4.4 ESE 11 13 6 7 1019.2 1019.1 0.0
09/08:30pm 23.0 21.9 15.3 62 4.6 SE 15 19 8 10 1019.0 1019.0 0.0
09/08:00pm 23.2 21.7 15.3 61 4.7 ESE 17 20 9 11 1018.9 1018.9 0.0
09/07:30pm 23.9 21.6 14.0 54 5.8 ESE 19 22 10 12 1018.8 - 0.0
09/07:00pm 24.5 21.5 11.8 45 7.2 ESE 19 24 10 13 1018.6 1018.6 0.0
09/06:30pm 25.0 22.1 12.2 44 7.3 E 19 24 10 13 1018.3 - 0.0
09/06:00pm 25.4 22.6 13.3 47 7.1 SE 20 26 11 14 1018.2 1018.2 0.0
09/05:30pm 25.9 22.3 12.0 42 8.0 SE 22 28 12 15 1018.2 1018.2 0.0
09/05:00pm 26.2 22.8 12.6 43 7.9 ESE 22 28 12 15 1018.3 1018.3 0.0
09/04:30pm 26.1 22.6 12.2 42 8.0 E 22 30 12 16 1018.5 - 0.0
09/04:00pm 26.0 22.1 12.1 42 8.0 ESE 24 30 13 16 1018.8 1018.8 0.0
09/03:30pm 26.3 22.4 12.0 41 8.2 ESE 24 32 13 17 1019.1 1019.1 0.0
09/03:00pm 26.3 22.6 12.7 43 7.9 ESE 24 32 13 17 1019.4 1019.5 0.0
09/02:30pm 26.0 22.2 12.5 43 7.8 SE 24 33 13 18 1019.7 - 0.0
09/02:00pm 26.5 23.1 13.6 45 7.6 ESE 24 32 13 17 1019.9 1019.9 0.0
09/01:30pm 26.7 23.3 13.8 45 7.6 SE 24 32 13 17 1020.3 1020.3 0.0
09/01:00pm 26.8 23.2 13.2 43 8.0 SE 24 32 13 17 1020.5 1020.5 0.0
09/12:30pm 25.6 22.4 13.1 46 7.3 SE 22 33 12 18 1020.7 - 0.0
09/12:00pm 26.5 22.7 13.6 45 7.6 SE 26 33 14 18 1020.9 1020.9 0.0
09/11:30am 26.4 22.5 14.5 48 7.1 SE 28 33 15 18 1021.0 - 0.0
09/11:00am 26.0 23.9 16.3 55 5.9 SSE 22 33 12 18 1021.1 1021.1 0.0
09/10:30am 25.2 22.7 14.0 49 6.6 SE 20 28 11 15 1021.1 - 0.0
09/10:00am 25.0 21.8 15.3 55 5.8 SE 26 33 14 18 1021.2 1021.2 0.0
09/09:30am 24.0 21.4 15.0 57 5.4 SE 22 32 12 17 1021.0 - 0.0
09/09:00am 23.7 23.5 16.7 65 4.3 S 13 17 7 9 1021.0 1021.0 0.0
09/08:30am 22.2 22.9 17.1 73 3.1 SW 9 11 5 6 1020.8 - 0.0
09/08:00am 21.0 22.0 16.8 77 2.5 SSW 7 11 4 6 1020.5 1020.5 0.0
09/07:30am 19.7 21.4 16.3 81 2.0 SSW 2 6 1 3 1020.2 - 0.0
09/07:00am 19.2 19.8 15.9 81 2.0 SSW 7 9 4 5 1019.9 1019.9 0.0
09/06:30am 18.5 19.9 15.4 82 1.8 SSW 2 6 1 3 1019.6 - 0.0
09/06:00am 18.6 19.3 15.5 82 1.8 SSW 6 7 3 4 1019.3 1019.3 0.0
09/05:30am 18.6 19.3 15.5 82 1.8 SSW 6 7 3 4 1018.9 - 0.0
09/05:00am 18.9 20.4 15.8 82 1.8 SSW 2 7 1 4 1018.8 1018.8 0.0
09/04:30am 19.0 20.9 15.7 81 2.0 CALM 0 0 0 0 1018.7 - 0.0
09/04:00am 19.1 19.6 15.6 80 2.1 SSW 7 9 4 5 1018.8 1018.8 0.0
09/03:30am 19.7 20.2 16.5 82 1.9 SSW 9 13 5 7 1018.9 - 0.0
09/03:00am 19.6 20.5 16.1 80 2.1 SSW 6 9 3 5 1018.8 1018.9 0.0
09/02:30am 19.7 20.4 16.2 80 2.1 SSW 7 11 4 6 1019.1 - 0.0
09/02:00am 19.9 20.9 16.3 80 2.2 S 6 11 3 6 1019.2 1019.2 0.0
09/01:30am 20.0 21.0 16.4 80 2.2 S 6 7 3 4 1019.5 - 0.0
09/01:00am 20.2 21.3 16.6 80 2.2 SSW 6 7 3 4 1019.7 1019.7 0.0
09/12:30am 20.2 22.4 16.6 80 2.2 CALM 0 0 0 0 1019.7 - 0.0
09/12:00am 20.3 22.6 16.7 80 2.2 CALM 0 0 0 0 1019.8 1019.8 0.0
 
Date/Time
EDT
Temp
°C
App
Temp
°C
Dew
Point
Rel
Hum
%
Delta-T
°C
Wind Press
QNH
hPa
Press
MSL
hPa
Rain
since 9 am
mm
Dir
 
Spd
km/h
Gust
km/h
Spd
kts
Gust
kts
08/11:30pm 20.6 22.9 16.8 79 2.3 CALM 0 2 0 1 1019.8 - 0.0
08/11:00pm 20.7 23.1 16.9 79 2.3 CALM 0 0 0 0 1019.7 1019.7 0.0
08/10:30pm 20.8 22.3 16.6 77 2.5 SSW 4 7 2 4 1019.7 1019.7 0.0
08/10:00pm 21.6 22.5 16.6 73 3.0 S 7 9 4 5 1019.6 1019.5 0.0
08/09:30pm 22.9 23.2 17.1 70 3.6 SE 11 15 6 8 1019.1 - 0.0
08/09:00pm 23.2 23.5 17.0 68 3.8 E 11 15 6 8 1018.7 1018.7 0.0
08/08:30pm 23.5 22.6 16.8 66 4.1 ESE 17 19 9 10 1018.5 - 0.0
08/08:01pm 24.1 22.7 15.6 59 5.1 SE 17 20 9 11 1018.3 - 0.0
08/08:00pm 24.1 22.7 15.6 59 5.1 ESE 17 20 9 11 1018.3 1018.3 0.0
08/07:30pm 24.9 22.8 13.5 49 6.7 ESE 17 20 9 11 1018.0 1018.0 0.0
08/07:00pm 25.5 23.0 13.4 47 7.1 ESE 19 24 10 13 1017.6 1017.6 0.0
08/06:30pm 25.9 23.3 13.1 45 7.5 ESE 19 28 10 15 1017.2 1017.2 0.0
08/06:00pm 26.6 23.7 13.0 43 7.9 ESE 20 28 11 15 1017.3 1017.3 0.0
08/05:30pm 27.3 24.2 12.1 39 8.8 ESE 20 30 11 16 1017.2 1017.2 0.0
08/05:00pm 27.5 23.8 10.2 34 9.7 SE 20 28 11 15 1017.4 1017.4 0.0
08/04:30pm 27.4 24.2 11.8 38 9.0 ESE 20 30 11 16 1017.4 1017.4 0.0
08/04:00pm 27.9 24.6 11.5 36 9.4 ESE 20 28 11 15 1017.4 1017.4 0.0
08/03:30pm 28.7 26.2 12.2 36 9.6 ESE 17 28 9 15 1017.4 1017.4 0.0
08/03:00pm 27.8 25.3 12.2 38 9.0 E 17 28 9 15 1017.5 1017.5 0.0
08/02:30pm 28.4 27.0 13.5 40 8.8 E 13 20 7 11 1017.8 1017.8 0.0
08/02:00pm 27.8 25.6 12.2 38 9.0 ESE 15 24 8 13 1017.9 1017.9 0.0
08/01:30pm 28.1 26.3 13.2 39 8.8 SE 15 22 8 12 1018.1 1018.1 0.0
08/01:00pm 27.6 26.0 12.8 40 8.6 E 13 22 7 12 1018.4 1018.4 0.0
08/12:30pm 27.4 25.6 13.4 42 8.3 ESE 15 24 8 13 1018.5 1018.5 0.0
08/12:00pm 27.1 26.7 13.1 42 8.2 E 7 11 4 6 1018.9 1018.9 0.0
08/11:30am 26.5 26.7 14.6 48 7.1 SSE 7 11 4 6 1019.2 1019.2 0.0
08/11:00am 26.1 26.5 15.2 51 6.6 ESE 7 11 4 6 1019.2 1019.2 0.0
08/10:30am 25.3 25.6 15.0 53 6.2 SSE 7 13 4 7 1019.4 1019.4 0.0
08/10:00am 24.9 26.1 15.8 57 5.5 SSE 4 7 2 4 1019.4 1019.4 0.0
08/09:30am 23.2 23.6 15.3 61 4.7 WSW 7 11 4 6 1019.4 1019.4 0.0
08/09:00am 22.0 21.8 14.6 63 4.3 SW 9 13 5 7 1019.3 1019.3 0.0
08/08:30am 20.7 20.5 14.6 68 3.6 WSW 9 13 5 7 1019.3 1019.3 0.0
08/08:10am 19.9 19.8 14.9 73 2.9 WSW 9 11 5 6 1019.2 1019.2 0.0
08/08:00am 19.5 19.2 14.5 73 2.9 W 9 9 5 5 1019.2 1019.2 0.0
08/07:52am 19.1 19.3 14.8 76 2.5 WSW 7 11 4 6 1019.2 1019.2 0.0
08/07:49am 19.1 19.3 14.8 76 2.5 WSW 7 11 4 6 1019.1 1019.1 0.0
08/07:30am 18.2 18.5 14.5 79 2.1 SW 6 9 3 5 1018.9 1018.9 0.0
08/07:14am 17.8 18.3 14.9 83 1.7 SW 6 7 3 4 1018.8 1018.8 0.0
08/07:00am 17.1 17.8 14.4 84 1.5 SW 4 7 2 4 1018.7 1018.7 0.0
08/06:55am 17.0 18.0 14.3 84 1.5 SW 2 7 1 4 1018.7 1018.7 0.0
08/06:30am 16.7 16.9 14.2 85 1.4 SW 6 7 3 4 1018.5 1018.5 0.0
08/06:00am 16.8 17.0 14.1 84 1.5 SW 6 9 3 5 1018.3 1018.3 0.0
08/05:30am 17.2 18.3 14.5 84 1.6 SSW 2 7 1 4 1018.1 1018.1 0.0
08/05:00am 17.3 18.8 14.6 84 1.6 CALM 0 0 0 0 1017.8 1017.8 0.0
08/04:30am 17.4 18.9 14.7 84 1.6 CALM 0 0 0 0 1017.7 1017.7 0.0
08/04:00am 17.6 19.2 14.9 84 1.6 CALM 0 0 0 0 1017.7 1017.7 0.0
08/03:30am 17.9 19.6 15.3 85 1.5 CALM 0 0 0 0 1017.9 1017.9 0.0
08/03:00am 18.0 19.7 15.3 84 1.6 CALM 0 0 0 0 1018.1 1018.1 0.0
08/02:30am 18.1 19.9 15.4 84 1.6 CALM 0 0 0 0 1018.1 1018.1 0.0
08/02:00am 18.0 19.6 14.9 82 1.8 CALM 0 0 0 0 1018.3 1018.3 0.0
08/01:30am 19.0 20.8 15.5 80 2.1 CALM 0 0 0 0 1018.5 1018.5 0.0
08/01:00am 19.3 21.3 16.0 81 2.0 CALM 0 0 0 0 1018.7 1018.7 0.0
08/12:30am 19.3 21.3 16.0 81 2.0 CALM 0 0 0 0 1018.8 1018.8 0.0
08/12:00am 19.6 21.6 15.9 79 2.2 CALM 0 0 0 0 1018.8 1018.8 0.0
 
Date/Time
EDT
Temp
°C
App
Temp
°C
Dew
Point
Rel
Hum
%
Delta-T
°C
Wind Press
QNH
hPa
Press
MSL
hPa
Rain
since 9 am
mm
Dir
 
Spd
km/h
Gust
km/h
Spd
kts
Gust
kts
07/11:30pm 19.9 20.8 16.2 79 2.2 S 6 7 3 4 1018.8 1018.8 0.0
07/11:00pm 20.3 22.3 15.9 76 2.6 CALM 0 0 0 0 1018.7 1018.7 0.0
07/10:30pm 20.1 20.8 15.5 75 2.7 SE 6 6 3 3 1018.6 1018.6 0.0
07/10:00pm 22.7 23.2 15.5 64 4.3 ESE 7 9 4 5 1018.5 1018.5 0.0
07/09:30pm 22.6 23.0 15.4 64 4.3 ESE 7 9 4 5 1018.3 1018.3 0.0
07/09:00pm 22.9 23.0 15.5 63 4.4 ESE 9 11 5 6 1018.0 1018.0 0.0
07/08:30pm 23.3 23.0 15.4 61 4.7 ESE 11 17 6 9 1017.6 1017.6 0.0
07/08:00pm 23.7 22.1 13.8 53 5.8 ESE 15 19 8 10 1017.4 1017.4 0.0
07/07:30pm 24.3 22.3 13.8 52 6.2 ESE 17 20 9 11 1017.1 1017.1 0.0
07/07:00pm 24.8 22.3 13.4 49 6.6 ESE 19 22 10 12 1016.7 1016.7 0.0
07/06:30pm 25.3 22.8 13.5 48 6.9 E 19 24 10 13 1016.4 1016.4 0.0
07/06:00pm 25.4 22.8 13.3 47 7.1 ESE 19 24 10 13 1016.3 1016.3 0.0
07/05:30pm 25.2 22.3 12.8 46 7.2 ESE 20 28 11 15 1016.1 1016.1 0.0
07/05:00pm 26.1 23.2 12.2 42 8.0 E 19 26 10 14 1015.9 1015.9 0.0
07/04:30pm 25.4 22.6 13.3 47 7.1 E 20 30 11 16 1015.9 1015.9 0.0
07/04:00pm 26.0 23.0 13.8 47 7.2 ESE 22 35 12 19 1016.0 1016.0 0.0
07/03:30pm 26.4 23.7 13.5 45 7.6 SE 20 28 11 15 1016.2 1016.2 0.0
07/03:00pm 26.4 23.0 12.5 42 8.0 ESE 22 30 12 16 1016.4 1016.4 0.0
07/02:30pm 26.5 23.4 13.3 44 7.7 ESE 22 28 12 15 1016.5 1016.5 0.0
07/02:00pm 25.4 22.6 13.3 47 7.1 ESE 20 30 11 16 1016.6 1016.6 0.0
07/01:30pm 25.7 23.0 13.5 46 7.2 SE 20 30 11 16 1016.9 1016.9 0.0
07/01:00pm 26.3 24.6 14.7 48 6.9 ESE 17 24 9 13 1017.1 1017.1 0.0
07/12:30pm 26.1 23.4 13.6 46 7.4 ESE 20 28 11 15 1017.4 1017.4 0.0
07/12:00pm 25.3 23.4 14.1 50 6.6 ESE 17 24 9 13 1017.6 1017.6 0.0
07/11:30am 24.9 23.7 15.0 54 5.9 SE 15 22 8 12 1017.8 1017.8 0.0
07/11:00am 24.2 22.1 14.6 55 5.7 SE 19 24 10 13 1018.1 1018.1 0.0
07/10:41am 24.8 22.5 13.0 47 6.8 SE 17 22 9 12 1018.2 1018.2 0.0
07/10:30am 24.3 22.5 14.4 54 5.9 SE 17 24 9 13 1018.2 1018.2 0.0
07/10:00am 24.0 22.9 15.2 58 5.3 SE 15 22 8 12 1018.1 1018.1 0.0
07/09:30am 22.9 23.5 15.7 64 4.3 S 7 13 4 7 1018.3 1018.3 0.0
07/09:29am 22.9 23.5 15.7 64 4.3 S 7 13 4 7 1018.3 1018.3 0.0
07/09:10am 22.3 23.1 15.9 67 3.9 S 6 9 3 5 1018.3 1018.3 0.0
07/09:00am 21.7 22.2 15.5 68 3.7 S 7 11 4 6 1018.2 1018.2 1.6
07/08:30am 20.9 21.5 15.7 72 3.1 SSW 7 11 4 6 1018.2 1018.2 1.6
07/08:00am 19.4 19.7 15.1 76 2.5 SSW 7 9 4 5 1018.1 1018.1 1.6
07/07:30am 18.7 18.6 15.0 79 2.2 SW 9 11 5 6 1017.9 1017.9 1.6
07/07:00am 17.9 18.3 14.8 82 1.8 SW 6 7 3 4 1017.7 1017.7 1.6
07/06:30am 17.4 18.8 14.3 82 1.8 CALM 0 0 0 0 1017.5 1017.5 1.6
07/06:00am 17.6 19.0 14.5 82 1.8 CALM 0 0 0 0 1017.2 1017.2 1.6
07/05:30am 17.5 18.6 14.6 83 1.7 SW 2 7 1 4 1016.8 1016.8 1.6
07/05:09am 17.3 18.2 14.0 81 1.9 SW 2 6 1 3 1016.7 1016.7 1.6
07/05:00am 17.3 17.8 14.0 81 1.9 SW 4 6 2 3 1016.7 1016.7 1.6
07/04:51am 17.2 17.2 13.7 80 2.0 SW 6 7 3 4 1016.8 1016.8 1.6
07/04:30am 17.4 18.2 13.7 79 2.1 SW 2 6 1 3 1016.9 1016.9 1.6
07/04:00am 17.7 18.6 14.0 79 2.1 SSW 2 7 1 4 1017.0 1017.0 1.6
07/03:30am 17.9 18.8 14.0 78 2.2 S 2 6 1 3 1017.2 1017.2 1.6
07/03:00am 18.5 19.9 14.4 77 2.4 CALM 0 0 0 0 1017.2 1017.2 1.6
07/02:30am 18.6 20.0 14.5 77 2.4 CALM 0 0 0 0 1017.4 1017.4 1.6
07/02:00am 18.3 19.6 14.2 77 2.4 CALM 0 0 0 0 1017.4 1017.4 1.6
07/01:30am 18.8 19.9 14.5 76 2.5 S 2 6 1 3 1017.6 1017.6 1.6
07/01:00am 18.9 20.4 14.6 76 2.5 CALM 0 0 0 0 1018.1 1018.1 1.6
07/12:30am 19.1 20.5 14.4 74 2.7 CALM 0 0 0 0 1018.2 1018.2 1.6
07/12:00am 19.4 21.0 14.9 75 2.6 CALM 0 0 0 0 1018.5 1018.5 1.6
 
Date/Time
EDT
Temp
°C
App
Temp
°C
Dew
Point
Rel
Hum
%
Delta-T
°C
Wind Press
QNH
hPa
Press
MSL
hPa
Rain
since 9 am
mm
Dir
 
Spd
km/h
Gust
km/h
Spd
kts
Gust
kts
06/11:30pm 19.1 19.4 14.4 74 2.7 S 6 6 3 3 1018.2 1018.2 1.6
06/11:00pm 20.0 20.3 14.4 70 3.2 S 6 7 3 4 1018.3 1018.3 1.6

Other Formats:

Comma delimited format used in spreadsheet applications
http://www.bom.gov.au/fwo/IDN60801/IDN60801.94765.axf

JavaScript Object Notation format (JSON) in row-major order
http://www.bom.gov.au/fwo/IDN60801/IDN60801.94765.json